Time;durP1;ratioP1;P1;durP2;ratioP2;P2;SDS_P1;SDS_P2;PMS_P1;PMS_P2;Temp;Humidity;BMP_temperature;BMP_pressure;BME280_temperature;BME280_humidity;BME280_pressure;Samples;Min_cycle;Max_cycle;Signal;HPM_P1;HPM_P2
2022/03/26 00:01:49;;;;;;;42.17;30.48;;;11.50;1.00;;;;;;5052397;28;20029;-79
2022/03/26 00:04:14;;;;;;;37.88;28.63;;;11.50;1.00;;;;;;5052148;28;20562;-79
2022/03/26 00:06:40;;;;;;;39.08;29.08;;;11.50;1.00;;;;;;5051952;28;20021;-79
2022/03/26 00:09:06;;;;;;;39.50;29.80;;;11.40;1.00;;;;;;5052670;28;20030;-79
2022/03/26 00:11:31;;;;;;;42.03;29.75;;;11.30;1.00;;;;;;5054628;28;20036;-79
2022/03/26 00:13:57;;;;;;;40.67;28.85;;;11.70;1.00;;;;;;5051623;28;20473;-79
2022/03/26 00:16:22;;;;;;;39.58;28.05;;;11.10;1.00;;;;;;5051806;28;20079;-80
2022/03/26 00:18:48;;;;;;;37.78;28.38;;;10.80;1.00;;;;;;5050143;28;20032;-79
2022/03/26 00:21:14;;;;;;;40.70;29.23;;;10.80;1.00;;;;;;5051422;28;20025;-79
2022/03/26 00:23:39;;;;;;;38.90;29.23;;;10.60;1.00;;;;;;5054014;28;20103;-79
2022/03/26 00:26:05;;;;;;;43.33;29.58;;;10.60;1.00;;;;;;5051939;28;20039;-79
2022/03/26 00:28:31;;;;;;;38.05;28.13;;;10.80;1.00;;;;;;5051825;28;20078;-79
2022/03/26 00:30:57;;;;;;;38.58;27.85;;;10.40;1.00;;;;;;5052093;28;20032;-79
2022/03/26 00:33:25;;;;;;;34.40;26.60;;;10.30;1.00;;;;;;5051702;28;20501;-80
2022/03/26 00:35:50;;;;;;;39.08;28.27;;;10.00;1.00;;;;;;5053229;28;20025;-79
2022/03/26 00:38:16;;;;;;;35.58;27.17;;;10.00;1.00;;;;;;5052372;28;20025;-79
2022/03/26 00:40:42;;;;;;;38.67;28.83;;;9.90;1.00;;;;;;5052492;28;20029;-79
2022/03/26 00:43:07;;;;;;;37.90;27.10;;;10.00;1.00;;;;;;5050346;28;20071;-79
2022/03/26 00:45:34;;;;;;;37.38;27.55;;;9.70;1.00;;;;;;5050747;28;20056;-78
2022/03/26 00:48:01;;;;;;;34.10;26.63;;;9.80;1.00;;;;;;5051281;28;20373;-79
2022/03/26 00:50:27;;;;;;;38.78;27.67;;;9.70;1.00;;;;;;5054018;28;20389;-79
2022/03/26 00:52:53;;;;;;;37.03;27.90;;;9.40;1.00;;;;;;5051643;28;20074;-79
2022/03/26 00:55:19;;;;;;;38.42;28.33;;;9.60;1.00;;;;;;5051282;28;20021;-79
2022/03/26 00:57:44;;;;;;;37.70;28.17;;;9.80;1.00;;;;;;5049862;28;20512;-79
2022/03/26 01:00:12;;;;;;;46.13;29.88;;;9.90;1.00;;;;;;5050719;28;20034;-79
2022/03/26 01:02:38;;;;;;;39.13;29.55;;;9.90;1.00;;;;;;5052853;28;20041;-79
2022/03/26 01:05:04;;;;;;;43.08;31.15;;;10.00;1.00;;;;;;5051064;28;20032;-79
2022/03/26 01:07:31;;;;;;;41.05;29.80;;;9.90;1.00;;;;;;5051137;28;20025;-79
2022/03/26 01:09:57;;;;;;;44.80;31.17;;;10.00;1.00;;;;;;5051026;28;20090;-79
2022/03/26 01:12:24;;;;;;;44.28;30.40;;;9.90;1.00;;;;;;5051226;28;20025;-79
2022/03/26 01:14:50;;;;;;;44.58;30.38;;;9.80;1.00;;;;;;5052198;28;20032;-79
2022/03/26 01:17:16;;;;;;;43.40;30.08;;;9.50;1.00;;;;;;5051336;28;20033;-79
2022/03/26 01:19:43;;;;;;;42.25;30.67;;;9.80;1.00;;;;;;5051176;28;20079;-79
2022/03/26 01:22:09;;;;;;;39.42;29.85;;;9.60;1.00;;;;;;5051267;28;20033;-79
2022/03/26 01:24:35;;;;;;;41.15;29.17;;;9.50;1.00;;;;;;5050877;28;20293;-79
2022/03/26 01:27:00;;;;;;;45.58;30.08;;;9.60;1.00;;;;;;5050880;28;20350;-79
2022/03/26 01:29:26;;;;;;;41.38;30.10;;;9.80;1.00;;;;;;5052638;28;20039;-79
2022/03/26 01:31:53;;;;;;;41.60;28.70;;;9.10;1.00;;;;;;5050108;28;20059;-79
2022/03/26 01:34:19;;;;;;;44.92;30.75;;;9.10;1.00;;;;;;5050760;28;20079;-79
2022/03/26 01:36:45;;;;;;;39.92;29.50;;;9.20;1.00;;;;;;5049627;28;20029;-79
2022/03/26 01:39:11;;;;;;;42.40;29.60;;;9.20;1.00;;;;;;5050109;28;20060;-79
2022/03/26 01:41:37;;;;;;;44.78;31.35;;;9.30;1.00;;;;;;5051359;28;20477;-79
2022/03/26 01:44:04;;;;;;;44.00;30.23;;;9.40;1.00;;;;;;5051036;28;20497;-79
2022/03/26 01:46:50;;;;;;;43.63;29.95;;;9.30;1.00;;;;;;5050205;28;20027;-79
2022/03/26 01:49:17;;;;;;;43.55;29.88;;;9.30;1.00;;;;;;5050060;28;20024;-79
2022/03/26 01:51:43;;;;;;;44.00;29.80;;;9.20;1.00;;;;;;5050951;28;20127;-80
2022/03/26 01:54:09;;;;;;;45.55;31.15;;;9.30;1.00;;;;;;5050401;28;20047;-79
2022/03/26 01:56:35;;;;;;;42.70;30.13;;;9.20;1.00;;;;;;5052339;28;20025;-80
2022/03/26 01:59:02;;;;;;;43.83;30.55;;;9.20;1.00;;;;;;5050768;28;20040;-79
2022/03/26 02:01:27;;;;;;;40.38;28.50;;;9.20;1.00;;;;;;5049721;28;20083;-78
2022/03/26 02:03:53;;;;;;;42.10;30.77;;;9.20;1.00;;;;;;5050149;28;20396;-80
2022/03/26 02:06:22;;;;;;;45.55;31.38;;;9.70;1.00;;;;;;5049979;28;20446;-79
2022/03/26 02:08:48;;;;;;;44.58;31.58;;;9.30;1.00;;;;;;5051863;28;20171;-79
2022/03/26 02:11:13;;;;;;;43.42;31.35;;;9.70;1.00;;;;;;5048991;28;20549;-79
2022/03/26 02:13:54;;;;;;;42.95;31.80;;;9.70;1.00;;;;;;5049821;28;20401;-79
2022/03/26 02:16:22;;;;;;;43.30;31.98;;;9.60;1.00;;;;;;5048201;28;20350;-79
2022/03/26 02:18:48;;;;;;;45.83;31.33;;;9.60;1.00;;;;;;5047138;28;20389;-79
2022/03/26 02:21:18;;;;;;;46.35;30.60;;;9.70;1.00;;;;;;5034506;28;20041;-79
2022/03/26 02:23:45;;;;;;;44.60;31.38;;;9.20;1.00;;;;;;5047971;28;20079;-79
2022/03/26 02:26:17;;;;;;;43.28;29.80;;;9.30;1.00;;;;;;5048316;28;20111;-79
2022/03/26 02:28:44;;;;;;;45.35;30.85;;;9.10;1.00;;;;;;5049617;28;20025;-80
2022/03/26 02:31:13;;;;;;;41.95;29.67;;;9.40;1.00;;;;;;5047864;28;20819;-79
2022/03/26 02:33:40;;;;;;;42.33;29.90;;;9.10;1.00;;;;;;5049991;28;20079;-79
2022/03/26 02:36:06;;;;;;;43.28;30.17;;;9.00;1.00;;;;;;5050103;28;20042;-79
2022/03/26 02:38:32;;;;;;;41.70;29.52;;;9.10;1.00;;;;;;5051651;28;20005;-79
2022/03/26 02:40:58;;;;;;;42.88;30.50;;;9.20;1.00;;;;;;5049043;28;20086;-79
2022/03/26 02:43:23;;;;;;;39.92;29.83;;;9.00;1.00;;;;;;5049864;28;20029;-79
2022/03/26 02:45:49;;;;;;;44.17;31.05;;;8.60;1.00;;;;;;5049292;28;20029;-79
2022/03/26 02:48:15;;;;;;;43.03;30.50;;;8.70;1.00;;;;;;5049338;28;20079;-80
2022/03/26 02:50:45;;;;;;;42.28;29.38;;;8.70;1.00;;;;;;5051702;28;20021;-79
2022/03/26 02:53:11;;;;;;;46.75;31.13;;;8.60;1.00;;;;;;5048333;28;20123;-79
2022/03/26 02:55:38;;;;;;;42.65;29.88;;;8.60;1.00;;;;;;5048189;28;20373;-79
2022/03/26 02:58:05;;;;;;;44.65;31.10;;;8.50;1.00;;;;;;5047879;28;20485;-79
2022/03/26 03:00:32;;;;;;;43.50;30.50;;;8.60;1.00;;;;;;5048871;28;20033;-79
2022/03/26 03:02:57;;;;;;;46.13;31.13;;;8.80;1.00;;;;;;5049900;28;20037;-79
2022/03/26 03:05:23;;;;;;;41.45;29.75;;;8.70;1.00;;;;;;5051158;28;20025;-79
2022/03/26 03:07:50;;;;;;;45.33;31.98;;;8.30;1.00;;;;;;5049177;28;20017;-78
2022/03/26 03:10:16;;;;;;;44.67;30.95;;;8.30;1.00;;;;;;5052332;28;20497;-79
2022/03/26 03:12:44;;;;;;;45.10;30.70;;;8.30;1.00;;;;;;5053706;28;20092;-79
2022/03/26 03:15:10;;;;;;;42.22;29.90;;;8.30;1.00;;;;;;5052907;28;20082;-79
2022/03/26 03:17:37;;;;;;;41.75;30.08;;;8.20;1.00;;;;;;5055631;28;20057;-79
2022/03/26 03:20:04;;;;;;;45.50;31.33;;;8.20;1.00;;;;;;5052964;28;20044;-79
2022/03/26 03:22:29;;;;;;;45.83;30.58;;;8.00;1.00;;;;;;5053207;28;20020;-79
2022/03/26 03:24:55;;;;;;;43.20;29.02;;;8.60;1.00;;;;;;5052891;28;20590;-79
2022/03/26 03:27:21;;;;;;;44.33;29.92;;;8.10;1.00;;;;;;5053544;28;20025;-79
2022/03/26 03:29:47;;;;;;;47.05;31.08;;;8.10;1.00;;;;;;5054517;28;20166;-78
2022/03/26 03:32:13;;;;;;;46.33;29.58;;;8.20;1.00;;;;;;5053534;28;20049;-79
2022/03/26 03:34:39;;;;;;;43.58;30.65;;;8.10;1.00;;;;;;5051604;28;20029;-79
2022/03/26 03:37:05;;;;;;;43.47;30.20;;;8.50;1.00;;;;;;5051401;28;20029;-79
2022/03/26 03:39:31;;;;;;;42.53;29.55;;;8.30;1.00;;;;;;5053103;28;20106;-79
2022/03/26 03:41:56;;;;;;;44.33;29.23;;;8.00;1.00;;;;;;5053186;28;20053;-80
2022/03/26 03:44:22;;;;;;;42.72;28.95;;;8.50;1.00;;;;;;5054403;28;20025;-79
2022/03/26 03:46:48;;;;;;;40.88;29.20;;;7.90;1.00;;;;;;5052743;28;20025;-79
2022/03/26 03:49:14;;;;;;;41.72;28.48;;;8.40;1.00;;;;;;5051284;28;20032;-79
2022/03/26 03:51:39;;;;;;;41.15;28.63;;;8.00;1.00;;;;;;5051415;28;20024;-79
2022/03/26 03:54:05;;;;;;;43.28;29.15;;;7.90;1.00;;;;;;5052371;28;20029;-79
2022/03/26 03:56:31;;;;;;;47.33;29.63;;;8.20;1.00;;;;;;5054639;28;20390;-79
2022/03/26 03:58:57;;;;;;;42.90;29.77;;;7.90;1.00;;;;;;5052642;28;20021;-79
2022/03/26 04:01:22;;;;;;;42.95;29.75;;;7.90;1.00;;;;;;5052108;28;20029;-79
2022/03/26 04:03:48;;;;;;;46.90;30.13;;;7.90;1.00;;;;;;5052567;28;20048;-79
2022/03/26 04:06:14;;;;;;;43.80;29.30;;;7.70;1.00;;;;;;5051908;28;20060;-79
2022/03/26 04:08:39;;;;;;;45.38;30.63;;;7.80;1.00;;;;;;5053942;28;20040;-79
2022/03/26 04:11:05;;;;;;;42.38;29.60;;;7.80;1.00;;;;;;5051918;28;20027;-79
2022/03/26 04:13:30;;;;;;;43.67;29.90;;;7.80;1.00;;;;;;5050940;28;20043;-79
2022/03/26 04:15:57;;;;;;;43.00;29.65;;;7.80;1.00;;;;;;5050938;28;20025;-78
2022/03/26 04:18:23;;;;;;;46.72;30.58;;;7.80;1.00;;;;;;5052122;28;20040;-79
2022/03/26 04:20:50;;;;;;;43.25;30.38;;;7.80;1.00;;;;;;5050749;28;20029;-79
2022/03/26 04:23:17;;;;;;;42.88;29.90;;;7.70;1.00;;;;;;5052966;28;20028;-79
2022/03/26 04:25:43;;;;;;;48.00;30.40;;;7.50;1.00;;;;;;5051529;28;20025;-79
2022/03/26 04:28:09;;;;;;;44.58;29.13;;;7.50;1.00;;;;;;5052113;28;20037;-79
2022/03/26 04:30:34;;;;;;;47.08;32.00;;;7.60;1.00;;;;;;5051991;28;20090;-79
2022/03/26 04:33:00;;;;;;;44.03;31.10;;;7.70;1.00;;;;;;5051944;28;20053;-79
2022/03/26 04:35:26;;;;;;;44.58;31.17;;;8.00;1.00;;;;;;5053656;28;20155;-79
2022/03/26 04:37:55;;;;;;;44.58;30.20;;;8.00;1.00;;;;;;5051999;28;20025;-79
2022/03/26 04:40:21;;;;;;;42.03;29.20;;;8.10;1.00;;;;;;5051361;28;20063;-78
2022/03/26 04:42:46;;;;;;;41.58;29.75;;;8.00;1.00;;;;;;5051684;28;20036;-79
2022/03/26 04:45:12;;;;;;;39.55;28.60;;;7.60;1.00;;;;;;5052088;28;20420;-79
2022/03/26 04:47:38;;;;;;;40.80;28.25;;;7.80;1.00;;;;;;5053705;28;20047;-79
2022/03/26 04:50:05;;;;;;;40.85;27.88;;;7.80;1.00;;;;;;5051504;28;20031;-79
2022/03/26 04:52:31;;;;;;;40.47;28.30;;;7.80;1.00;;;;;;5049796;28;20057;-79
2022/03/26 04:54:57;;;;;;;41.70;27.92;;;8.10;1.00;;;;;;5049964;28;20477;-79
2022/03/26 04:57:22;;;;;;;41.17;27.73;;;8.10;1.00;;;;;;5051668;28;20048;-78
2022/03/26 04:59:48;;;;;;;40.90;29.30;;;7.70;1.00;;;;;;5052682;28;20064;-79
2022/03/26 05:02:13;;;;;;;42.03;27.63;;;7.80;1.00;;;;;;5051842;28;20032;-79
2022/03/26 05:04:40;;;;;;;42.42;26.70;;;8.20;1.00;;;;;;5051821;28;20075;-78
2022/03/26 05:07:45;;;;;;;40.83;27.60;;;8.00;1.00;;;;;;5051101;28;20027;-79
2022/03/26 05:09:51;;;;;;;41.40;28.17;;;7.70;1.00;;;;;;5049593;28;20025;-79
2022/03/26 05:12:17;;;;;;;41.78;27.35;;;7.30;1.00;;;;;;5051209;28;20075;-79
2022/03/26 05:14:44;;;;;;;39.80;26.88;;;7.50;1.00;;;;;;5053574;28;20362;-79
2022/03/26 05:17:10;;;;;;;43.22;27.50;;;7.70;1.00;;;;;;5050884;28;20049;-79
2022/03/26 05:19:35;;;;;;;39.85;27.02;;;7.40;1.00;;;;;;5049960;28;20515;-79
2022/03/26 05:22:01;;;;;;;43.22;27.98;;;7.20;1.00;;;;;;5050667;28;20082;-78
2022/03/26 05:24:26;;;;;;;37.47;26.65;;;7.10;1.00;;;;;;5050957;28;20032;-79
2022/03/26 05:26:52;;;;;;;40.95;26.63;;;7.10;1.00;;;;;;5052166;28;20029;-79
2022/03/26 05:29:18;;;;;;;37.00;26.20;;;7.00;1.00;;;;;;5051897;28;20032;-79
2022/03/26 05:31:43;;;;;;;41.60;26.65;;;7.10;1.00;;;;;;5048520;28;20021;-79
2022/03/26 05:34:09;;;;;;;40.40;26.58;;;7.10;1.00;;;;;;5049677;28;20458;-79
2022/03/26 05:36:35;;;;;;;39.78;25.75;;;7.60;1.00;;;;;;5051008;28;20083;-79
2022/03/26 05:39:01;;;;;;;43.75;26.13;;;7.00;1.00;;;;;;5050398;28;20100;-79
2022/03/26 05:41:27;;;;;;;38.72;26.58;;;7.10;1.00;;;;;;5050447;28;20036;-79
2022/03/26 05:43:53;;;;;;;39.40;26.38;;;7.30;1.00;;;;;;5050250;28;20017;-80
2022/03/26 05:46:19;;;;;;;40.05;26.35;;;7.50;1.00;;;;;;5050804;28;20065;-78
2022/03/26 05:48:45;;;;;;;39.80;26.48;;;7.20;1.00;;;;;;5051356;28;20114;-79
2022/03/26 05:51:11;;;;;;;38.40;25.95;;;7.30;1.00;;;;;;5050415;28;20029;-79
2022/03/26 05:53:36;;;;;;;38.45;25.85;;;6.90;1.00;;;;;;5052032;28;20028;-79
2022/03/26 05:56:02;;;;;;;37.35;25.65;;;7.50;1.00;;;;;;5050000;28;20052;-79
2022/03/26 05:58:28;;;;;;;41.00;26.17;;;6.80;1.00;;;;;;5050271;28;20068;-79
2022/03/26 06:00:54;;;;;;;39.05;25.52;;;7.10;1.00;;;;;;5050571;28;20444;-79
2022/03/26 06:03:19;;;;;;;36.33;25.48;;;7.00;1.00;;;;;;5050027;28;20108;-79
2022/03/26 06:05:48;;;;;;;38.50;25.77;;;7.00;1.00;;;;;;5052190;28;20116;-78
2022/03/26 06:08:14;;;;;;;37.38;26.20;;;6.90;1.00;;;;;;5050497;28;20029;-79
2022/03/26 06:10:40;;;;;;;37.35;25.33;;;6.70;1.00;;;;;;5048798;28;20025;-79
2022/03/26 06:13:06;;;;;;;40.40;26.20;;;6.70;1.00;;;;;;5048723;28;20029;-79
2022/03/26 06:15:34;;;;;;;36.72;25.42;;;6.70;1.00;;;;;;5050573;28;20090;-78
2022/03/26 06:18:01;;;;;;;34.58;24.65;;;6.90;1.00;;;;;;5050132;28;20457;-78
2022/03/26 06:20:27;;;;;;;36.38;25.20;;;6.70;1.00;;;;;;5049890;28;20040;-79
2022/03/26 06:22:53;;;;;;;38.28;25.23;;;6.60;1.00;;;;;;5049619;28;20031;-79
2022/03/26 06:25:20;;;;;;;39.13;25.83;;;6.90;1.00;;;;;;5049493;28;20033;-79
2022/03/26 06:27:47;;;;;;;39.65;24.95;;;7.10;1.00;;;;;;5050214;28;20025;-79
2022/03/26 06:30:13;;;;;;;38.33;24.45;;;7.10;1.00;;;;;;5048930;28;20029;-79
2022/03/26 06:32:40;;;;;;;37.83;25.55;;;7.40;1.00;;;;;;5051579;28;20041;-78
2022/03/26 06:35:06;;;;;;;39.47;25.35;;;7.50;1.00;;;;;;5049256;28;20056;-79
2022/03/26 06:37:32;;;;;;;36.40;24.50;;;7.60;1.00;;;;;;5048695;28;20082;-78
2022/03/26 06:39:58;;;;;;;35.35;24.42;;;8.20;1.00;;;;;;5049941;28;20041;-80
2022/03/26 06:42:25;;;;;;;36.25;25.60;;;8.00;1.00;;;;;;5049823;28;20028;-79
2022/03/26 06:44:52;;;;;;;37.00;24.85;;;7.70;1.00;;;;;;5050349;28;20060;-80
2022/03/26 06:47:17;;;;;;;33.67;23.30;;;7.70;1.00;;;;;;5050992;28;20511;-79
2022/03/26 06:49:43;;;;;;;32.00;23.10;;;7.80;1.00;;;;;;5048269;28;20028;-81
2022/03/26 06:52:09;;;;;;;37.00;24.27;;;7.80;1.00;;;;;;5049487;28;20090;-79
2022/03/26 06:54:35;;;;;;;33.67;23.65;;;7.80;1.00;;;;;;5049439;28;20025;-80
2022/03/26 06:57:00;;;;;;;35.97;24.15;;;8.00;1.00;;;;;;5049573;28;20033;-80
2022/03/26 06:59:26;;;;;;;32.03;23.33;;;8.10;1.00;;;;;;5050279;28;20484;-81
2022/03/26 07:01:52;;;;;;;32.55;22.58;;;8.30;1.00;;;;;;5049044;28;20485;-81
2022/03/26 07:04:17;;;;;;;33.42;22.83;;;8.40;1.00;;;;;;5049266;28;20098;-80
2022/03/26 07:06:43;;;;;;;33.85;22.77;;;8.40;1.00;;;;;;5048986;28;20516;-81
2022/03/26 07:09:09;;;;;;;32.78;22.63;;;8.40;1.00;;;;;;5049688;28;20485;-80
2022/03/26 07:11:35;;;;;;;34.15;22.85;;;8.00;1.00;;;;;;5051338;28;20033;-80
2022/03/26 07:14:01;;;;;;;33.30;23.98;;;8.80;1.00;;;;;;5048602;28;20120;-81
2022/03/26 07:16:26;;;;;;;33.92;24.45;;;9.10;1.00;;;;;;5048870;28;20102;-81
2022/03/26 07:18:52;;;;;;;34.30;24.70;;;9.20;1.00;;;;;;5049178;28;20029;-81
2022/03/26 07:21:17;;;;;;;34.75;25.30;;;8.90;1.00;;;;;;5049257;28;20632;-81
2022/03/26 07:23:43;;;;;;;34.03;24.90;;;8.90;1.00;;;;;;5047036;28;20032;-80
2022/03/26 07:26:09;;;;;;;38.83;24.63;;;9.00;1.00;;;;;;5049217;28;20064;-81
2022/03/26 07:28:34;;;;;;;36.05;25.13;;;9.20;1.00;;;;;;5047541;28;20029;-80
2022/03/26 07:31:00;;;;;;;37.92;27.02;;;9.50;1.00;;;;;;5046182;28;20155;-81
2022/03/26 07:33:25;;;;;;;38.55;25.67;;;9.40;1.00;;;;;;5048955;28;20044;-80
2022/03/26 07:35:51;;;;;;;36.00;26.13;;;9.50;1.00;;;;;;5050609;28;20024;-80
2022/03/26 07:38:17;;;;;;;34.70;26.05;;;9.90;1.00;;;;;;5049680;28;20052;-80
2022/03/26 07:40:42;;;;;;;34.25;25.17;;;10.20;1.00;;;;;;5048848;28;20086;-81
2022/03/26 07:43:08;;;;;;;35.90;24.20;;;9.80;1.00;;;;;;5048818;28;20033;-81
2022/03/26 07:45:34;;;;;;;33.15;25.00;;;9.90;1.00;;;;;;5048849;28;20037;-81
2022/03/26 07:48:00;;;;;;;35.22;25.23;;;10.10;1.00;;;;;;5048034;28;20032;-81
2022/03/26 07:50:26;;;;;;;34.63;24.45;;;10.60;1.00;;;;;;5051154;28;20481;-81
2022/03/26 07:52:53;;;;;;;33.65;24.20;;;10.40;1.00;;;;;;5048643;28;20028;-81
2022/03/26 07:55:19;;;;;;;36.78;25.27;;;10.40;1.00;;;;;;5049608;28;20033;-81
2022/03/26 07:57:45;;;;;;;29.42;22.13;;;10.70;1.00;;;;;;5052984;28;20144;-81
2022/03/26 08:00:11;;;;;;;34.78;23.90;;;10.80;1.00;;;;;;5052704;28;20123;-81
2022/03/26 08:02:37;;;;;;;32.10;24.80;;;10.80;1.00;;;;;;5054441;28;20021;-81
2022/03/26 08:05:03;;;;;;;36.83;24.25;;;10.60;1.00;;;;;;5051986;28;20035;-81
2022/03/26 08:07:28;;;;;;;30.08;23.30;;;10.80;1.00;;;;;;5050987;28;20143;-81
2022/03/26 08:09:54;;;;;;;31.55;23.20;;;11.10;1.00;;;;;;5050775;28;20492;-81
2022/03/26 08:12:19;;;;;;;32.70;23.33;;;11.00;1.00;;;;;;5052454;28;20392;-81
2022/03/26 08:14:45;;;;;;;34.63;23.60;;;11.10;1.00;;;;;;5054379;28;20151;-80
2022/03/26 08:17:11;;;;;;;31.48;23.67;;;11.30;1.00;;;;;;5052101;28;20017;-81
2022/03/26 08:19:37;;;;;;;30.73;22.27;;;11.40;1.00;;;;;;5051744;28;20115;-78
2022/03/26 08:22:03;;;;;;;29.92;23.35;;;11.60;1.00;;;;;;5052041;28;20477;-78
2022/03/26 08:24:29;;;;;;;31.33;22.63;;;11.60;1.00;;;;;;5052250;28;20033;-81
2022/03/26 08:26:54;;;;;;;37.70;26.58;;;11.70;1.00;;;;;;5053129;28;20035;-80
2022/03/26 08:29:20;;;;;;;38.33;24.10;;;11.70;1.00;;;;;;5053098;28;20052;-80
2022/03/26 08:31:46;;;;;;;35.30;23.15;;;11.90;1.00;;;;;;5052066;28;20029;-81
2022/03/26 08:34:12;;;;;;;37.85;25.50;;;12.30;1.00;;;;;;5051761;28;20044;-93
2022/03/26 08:36:38;;;;;;;32.88;24.13;;;12.20;1.00;;;;;;5051126;28;20030;-85
2022/03/26 08:39:04;;;;;;;34.53;25.05;;;12.40;1.00;;;;;;5052613;28;20029;-84
2022/03/26 08:41:30;;;;;;;36.08;24.98;;;12.50;1.00;;;;;;5054923;28;20052;-85
2022/03/26 08:43:56;;;;;;;40.10;26.17;;;12.80;1.00;;;;;;5051867;28;20067;-84
2022/03/26 08:46:23;;;;;;;36.58;25.83;;;12.80;1.00;;;;;;5050051;28;20028;-85
2022/03/26 08:48:50;;;;;;;36.15;25.42;;;12.90;1.00;;;;;;5050537;28;20070;-85
2022/03/26 08:51:16;;;;;;;37.22;26.13;;;13.10;1.00;;;;;;5036707;28;20025;-85
2022/03/26 08:53:42;;;;;;;37.55;26.10;;;13.10;1.00;;;;;;5054234;28;20502;-85
2022/03/26 08:56:09;;;;;;;36.55;26.55;;;13.20;1.00;;;;;;5052318;28;20033;-85
2022/03/26 08:58:35;;;;;;;35.92;26.88;;;13.20;1.00;;;;;;5052570;28;20032;-85
2022/03/26 09:01:01;;;;;;;37.42;27.33;;;13.30;1.00;;;;;;5051506;28;20041;-85
2022/03/26 09:03:27;;;;;;;34.80;26.25;;;13.40;1.00;;;;;;5051951;28;20029;-85
2022/03/26 09:05:54;;;;;;;38.63;27.90;;;13.30;1.00;;;;;;5053653;28;20503;-85
2022/03/26 09:08:19;;;;;;;37.22;27.75;;;13.50;1.00;;;;;;5052418;28;20047;-85
2022/03/26 09:10:45;;;;;;;44.67;29.00;;;13.70;1.00;;;;;;5051847;28;20493;-85
2022/03/26 09:13:11;;;;;;;39.70;27.85;;;13.80;1.00;;;;;;5051727;28;20025;-85
2022/03/26 09:15:37;;;;;;;39.55;27.80;;;13.80;1.00;;;;;;5051617;28;20444;-85
2022/03/26 09:18:03;;;;;;;37.10;27.45;;;13.90;1.00;;;;;;5050429;28;20029;-85
2022/03/26 09:20:29;;;;;;;38.25;27.42;;;14.00;1.00;;;;;;5054008;28;20128;-85
2022/03/26 09:22:55;;;;;;;37.80;26.95;;;14.20;1.00;;;;;;5050209;28;20056;-84
2022/03/26 09:25:21;;;;;;;36.03;26.42;;;14.30;1.00;;;;;;5051855;28;20543;-85
2022/03/26 09:27:48;;;;;;;38.95;27.95;;;14.60;1.00;;;;;;5050290;28;20096;-85
2022/03/26 09:30:15;;;;;;;34.90;26.10;;;14.80;1.00;;;;;;5050797;28;20034;-84
2022/03/26 09:32:41;;;;;;;37.63;26.75;;;15.00;1.00;;;;;;5052868;28;20412;-85
2022/03/26 09:35:08;;;;;;;35.55;25.20;;;15.10;1.00;;;;;;5051637;28;20032;-84
2022/03/26 09:37:34;;;;;;;36.35;25.95;;;16.10;1.00;;;;;;5051469;28;20025;-85
2022/03/26 09:40:02;;;;;;;34.60;27.23;;;18.00;1.00;;;;;;5049868;28;20400;-86
2022/03/26 09:42:29;;;;;;;33.53;26.08;;;19.20;1.00;;;;;;5051301;28;20070;-85
2022/03/26 09:44:56;;;;;;;31.42;26.27;;;19.90;1.00;;;;;;5052509;28;20032;-86
2022/03/26 09:47:22;;;;;;;31.88;25.13;;;20.50;1.00;;;;;;5052320;28;20043;-85
2022/03/26 09:49:48;;;;;;;30.17;25.30;;;21.10;1.00;;;;;;5051353;28;20032;-86
2022/03/26 09:52:14;;;;;;;31.23;25.10;;;21.50;99.90;;;;;;5051413;28;20021;-86
2022/03/26 09:54:39;;;;;;;30.75;25.02;;;21.90;99.90;;;;;;5051294;28;20064;-86
2022/03/26 09:57:05;;;;;;;29.85;25.50;;;22.60;99.90;;;;;;5051934;28;20547;-86
2022/03/26 09:59:31;;;;;;;34.00;27.55;;;22.90;99.90;;;;;;5051029;28;20028;-86
2022/03/26 10:01:57;;;;;;;32.53;27.77;;;23.10;99.90;;;;;;5049726;28;20035;-85
2022/03/26 10:04:25;;;;;;;31.58;26.65;;;23.10;99.90;;;;;;5049357;28;20025;-86
2022/03/26 10:06:55;;;;;;;30.05;26.23;;;23.20;99.90;;;;;;5050161;28;20029;-86
2022/03/26 10:09:47;;;;;;;32.85;27.08;;;23.70;99.90;;;;;;5051242;28;20057;-86
2022/03/26 10:12:19;;;;;;;31.75;27.83;;;23.90;99.90;;;;;;5034634;28;20041;-86
2022/03/26 10:14:54;;;;;;;34.67;27.83;;;24.60;99.90;;;;;;5063866;28;20021;-86
2022/03/26 10:17:24;;;;;;;31.90;26.77;;;25.10;99.90;;;;;;5051613;28;20463;-86
2022/03/26 10:19:56;;;;;;;32.40;27.98;;;24.60;99.90;;;;;;5051243;28;20068;-87
2022/03/26 10:22:26;;;;;;;33.00;27.50;;;25.10;99.90;;;;;;5050665;28;20028;-86
2022/03/26 10:24:52;;;;;;;31.88;26.98;;;25.70;99.90;;;;;;5050523;28;20416;-86
2022/03/26 10:27:18;;;;;;;30.98;26.77;;;25.20;99.90;;;;;;5049155;28;20396;-86
2022/03/26 10:29:49;;;;;;;31.83;28.05;;;25.40;99.90;;;;;;5043919;28;20017;-87
2022/03/26 10:32:40;;;;;;;29.02;25.95;;;25.80;99.90;;;;;;5050765;28;20394;-86
2022/03/26 10:35:13;;;;;;;29.60;26.40;;;25.50;99.90;;;;;;5050429;28;20037;-86
2022/03/26 10:37:53;;;;;;;32.65;27.83;;;25.40;99.90;;;;;;5049801;28;20083;-86
2022/03/26 10:40:29;;;;;;;33.50;29.05;;;25.80;99.90;;;;;;5049485;28;20029;-87
2022/03/26 10:42:58;;;;;;;33.08;28.65;;;26.40;99.90;;;;;;5048214;28;20039;-87
2022/03/26 10:45:25;;;;;;;31.95;28.38;;;26.80;99.90;;;;;;5048783;28;20030;-87
2022/03/26 10:47:55;;;;;;;31.15;27.23;;;27.90;99.90;;;;;;5052649;28;20076;-86
2022/03/26 10:50:22;;;;;;;32.30;28.92;;;29.10;99.90;;;;;;5051209;28;20087;-86
2022/03/26 10:52:48;;;;;;;31.63;27.55;;;29.40;99.90;;;;;;5050285;28;20056;-87
2022/03/26 10:55:18;;;;;;;33.08;29.33;;;30.10;99.90;;;;;;5050543;28;20052;-87
2022/03/26 10:57:46;;;;;;;31.45;27.90;;;30.30;99.90;;;;;;5050159;28;20025;-87
2022/03/26 11:00:17;;;;;;;32.35;28.38;;;31.00;99.90;;;;;;5049653;28;20546;-87
2022/03/26 11:02:43;;;;;;;32.42;28.98;;;30.70;99.90;;;;;;5052690;28;20083;-87
2022/03/26 11:05:10;;;;;;;32.88;29.45;;;30.10;99.90;;;;;;5050187;28;20079;-87
2022/03/26 11:07:37;;;;;;;31.88;28.48;;;30.30;99.90;;;;;;5050081;28;20064;-87
2022/03/26 11:10:08;;;;;;;31.63;28.38;;;30.20;99.90;;;;;;5049839;28;20037;-87
2022/03/26 11:12:36;;;;;;;29.67;26.60;;;30.30;99.90;;;;;;5049619;28;20056;-87
2022/03/26 11:15:06;;;;;;;28.25;25.38;;;30.60;99.90;;;;;;5050661;28;20063;-87
2022/03/26 11:17:54;;;;;;;27.40;24.70;;;30.40;99.90;;;;;;5050390;28;20021;-87
2022/03/26 11:20:25;;;;;;;25.00;21.38;;;31.60;99.90;;;;;;5049403;28;20037;-87
2022/03/26 11:23:13;;;;;;;23.08;20.65;;;30.70;99.90;;;;;;5048279;28;20051;-87
2022/03/26 11:25:53;;;;;;;23.75;21.30;;;31.60;99.90;;;;;;5049967;28;20108;-87
2022/03/26 11:28:40;;;;;;;23.27;20.98;;;32.10;99.90;;;;;;5049877;28;20036;-87
2022/03/26 11:31:14;;;;;;;25.08;21.95;;;32.40;99.90;;;;;;5053146;28;20082;-87
2022/03/26 11:33:40;;;;;;;24.13;21.70;;;32.40;99.90;;;;;;5053700;28;20052;-87
2022/03/26 11:36:10;;;;;;;23.92;21.30;;;31.90;99.90;;;;;;5053872;28;20036;-87
2022/03/26 11:38:37;;;;;;;23.00;20.70;;;32.20;99.90;;;;;;5055993;28;20405;-87
2022/03/26 11:41:09;;;;;;;22.40;20.08;;;31.90;99.90;;;;;;5052264;28;20036;-87
2022/03/26 11:43:44;;;;;;;22.63;20.33;;;31.90;99.90;;;;;;5053871;28;20063;-87
2022/03/26 11:52:12;;;;;;;23.20;20.77;;;32.60;99.90;;;;;;5052789;28;20040;-87
2022/03/26 11:54:38;;;;;;;23.13;20.80;;;32.50;99.90;;;;;;5039536;28;20221;-87
2022/03/26 11:57:10;;;;;;;23.92;20.85;;;33.60;99.90;;;;;;5053153;28;20075;-87
2022/03/26 11:59:41;;;;;;;20.98;18.98;;;33.20;99.90;;;;;;5056313;28;20033;-87
2022/03/26 12:02:27;;;;;;;22.13;19.92;;;32.90;99.90;;;;;;5051234;28;20028;-87
2022/03/26 12:04:56;;;;;;;20.05;18.05;;;33.30;99.90;;;;;;5051878;28;20031;-87
2022/03/26 12:07:27;;;;;;;23.60;21.15;;;32.80;99.90;;;;;;5053195;28;20047;-87
2022/03/26 12:10:06;;;;;;;22.15;19.95;;;33.00;99.90;;;;;;5053529;28;20541;-88
2022/03/26 12:12:57;;;;;;;21.73;19.60;;;32.00;99.90;;;;;;5053295;28;20060;-88
2022/03/26 12:15:25;;;;;;;22.13;19.92;;;32.80;99.90;;;;;;5038933;28;20072;-87
2022/03/26 12:18:12;;;;;;;21.45;19.35;;;33.20;99.90;;;;;;5054937;28;20033;-87
2022/03/26 12:20:41;;;;;;;21.48;19.38;;;33.40;99.90;;;;;;5053558;28;20556;-87
2022/03/26 12:23:36;;;;;;;23.08;20.88;;;33.40;99.90;;;;;;5051811;28;20025;-88
2022/03/26 12:26:08;;;;;;;21.63;19.35;;;33.10;99.90;;;;;;5042325;28;20041;-87
2022/03/26 12:28:42;;;;;;;22.45;20.08;;;33.20;99.90;;;;;;5053344;28;20017;-87
2022/03/26 12:31:10;;;;;;;21.10;18.90;;;33.50;99.90;;;;;;5053208;28;20497;-87
2022/03/26 12:33:47;;;;;;;22.70;19.77;;;33.70;99.90;;;;;;5050928;28;20037;-87
2022/03/26 12:36:18;;;;;;;21.10;19.10;;;34.70;99.90;;;;;;5051996;28;20067;-88
2022/03/26 12:38:52;;;;;;;20.45;18.55;;;34.60;99.90;;;;;;5054599;28;20025;-88
2022/03/26 12:41:18;;;;;;;21.58;19.45;;;33.80;99.90;;;;;;5046817;28;20044;-88
2022/03/26 12:43:58;;;;;;;19.98;18.05;;;34.00;99.90;;;;;;5051324;28;20390;-87
2022/03/26 12:46:34;;;;;;;20.08;18.15;;;34.30;99.90;;;;;;5052908;28;20056;-87
2022/03/26 12:49:06;;;;;;;20.75;18.75;;;34.40;99.90;;;;;;5052572;28;20032;-87